sensor_id;sensor_type;location;lat;lon;timestamp;pressure;altitude;pressure_sealevel;temperature;humidity
13765;BME280;6953;48.810;9.204;2023-03-25T00:02:05;98188.72;;;10.64;100.00
13765;BME280;6953;48.810;9.204;2023-03-25T00:04:30;98004.63;;;9.32;100.00
13765;BME280;6953;48.810;9.204;2023-03-25T00:06:56;98160.22;;;10.44;100.00
13765;BME280;6953;48.810;9.204;2023-03-25T00:09:22;97877.13;;;8.77;100.00
13765;BME280;6953;48.810;9.204;2023-03-25T00:11:50;98156.97;;;10.40;100.00
13765;BME280;6953;48.810;9.204;2023-03-25T00:14:16;98157.16;;;10.37;100.00
13765;BME280;6953;48.810;9.204;2023-03-25T00:16:42;98138.03;;;10.22;100.00
13765;BME280;6953;48.810;9.204;2023-03-25T00:19:09;98157.31;;;10.21;100.00
13765;BME280;6953;48.810;9.204;2023-03-25T00:21:35;98165.53;;;10.15;100.00
13765;BME280;6953;48.810;9.204;2023-03-25T00:24:00;98146.31;;;10.00;100.00
13765;BME280;6953;48.810;9.204;2023-03-25T00:26:26;98062.25;;;9.46;100.00
13765;BME280;6953;48.810;9.204;2023-03-25T00:28:54;98168.91;;;10.03;100.00
13765;BME280;6953;48.810;9.204;2023-03-25T00:31:20;98165.75;;;9.96;100.00
13765;BME280;6953;48.810;9.204;2023-03-25T00:33:45;98173.13;;;9.90;100.00
13765;BME280;6953;48.810;9.204;2023-03-25T00:36:11;98116.22;;;9.48;100.00
13765;BME280;6953;48.810;9.204;2023-03-25T00:38:42;97884.00;;;8.04;100.00
13765;BME280;6953;48.810;9.204;2023-03-25T00:43:55;98076.59;;;9.10;100.00
13765;BME280;6953;48.810;9.204;2023-03-25T00:46:22;98179.38;;;9.58;100.00
13765;BME280;6953;48.810;9.204;2023-03-25T00:48:48;97882.06;;;7.92;100.00
13765;BME280;6953;48.810;9.204;2023-03-25T00:51:14;98168.78;;;9.59;100.00
13765;BME280;6953;48.810;9.204;2023-03-25T00:53:44;98038.59;;;8.89;100.00
13765;BME280;6953;48.810;9.204;2023-03-25T00:56:10;98162.28;;;9.66;100.00
13765;BME280;6953;48.810;9.204;2023-03-25T00:58:36;98135.19;;;9.52;100.00
13765;BME280;6953;48.810;9.204;2023-03-25T01:01:10;98086.03;;;9.27;100.00
13765;BME280;6953;48.810;9.204;2023-03-25T01:03:38;98146.44;;;9.54;100.00
13765;BME280;6953;48.810;9.204;2023-03-25T01:06:12;98136.41;;;9.46;100.00
13765;BME280;6953;48.810;9.204;2023-03-25T01:08:39;97932.88;;;8.17;100.00
13765;BME280;6953;48.810;9.204;2023-03-25T01:11:05;98153.31;;;9.41;100.00
13765;BME280;6953;48.810;9.204;2023-03-25T01:13:31;98145.34;;;9.42;100.00
13765;BME280;6953;48.810;9.204;2023-03-25T01:15:56;98141.22;;;9.38;100.00
13765;BME280;6953;48.810;9.204;2023-03-25T01:18:21;98079.84;;;8.99;100.00
13765;BME280;6953;48.810;9.204;2023-03-25T01:20:47;98090.03;;;9.04;100.00
13765;BME280;6953;48.810;9.204;2023-03-25T01:23:12;98058.91;;;8.84;100.00
13765;BME280;6953;48.810;9.204;2023-03-25T01:25:38;98155.06;;;9.40;100.00
13765;BME280;6953;48.810;9.204;2023-03-25T01:28:04;97859.72;;;7.71;100.00
13765;BME280;6953;48.810;9.204;2023-03-25T01:30:30;98151.50;;;9.41;100.00
13765;BME280;6953;48.810;9.204;2023-03-25T01:32:55;98170.78;;;9.40;100.00
13765;BME280;6953;48.810;9.204;2023-03-25T01:35:21;98138.19;;;9.46;100.00
13765;BME280;6953;48.810;9.204;2023-03-25T01:37:46;98122.97;;;9.52;100.00
13765;BME280;6953;48.810;9.204;2023-03-25T01:40:32;98133.13;;;9.72;100.00
13765;BME280;6953;48.810;9.204;2023-03-25T01:42:57;98135.88;;;9.85;100.00
13765;BME280;6953;48.810;9.204;2023-03-25T01:45:26;98113.00;;;10.02;100.00
13765;BME280;6953;48.810;9.204;2023-03-25T01:47:57;98127.56;;;10.22;100.00
13765;BME280;6953;48.810;9.204;2023-03-25T01:50:25;97887.34;;;8.81;100.00
13765;BME280;6953;48.810;9.204;2023-03-25T01:52:56;98155.09;;;10.29;100.00
13765;BME280;6953;48.810;9.204;2023-03-25T01:55:22;97988.38;;;9.41;100.00
13765;BME280;6953;48.810;9.204;2023-03-25T01:57:50;98125.69;;;10.37;100.00
13765;BME280;6953;48.810;9.204;2023-03-25T02:00:18;98097.53;;;9.98;100.00
13765;BME280;6953;48.810;9.204;2023-03-25T02:02:45;98106.69;;;10.34;100.00
13765;BME280;6953;48.810;9.204;2023-03-25T02:05:17;98091.97;;;10.32;100.00
13765;BME280;6953;48.810;9.204;2023-03-25T02:07:46;97830.16;;;8.75;99.13
13765;BME280;6953;48.810;9.204;2023-03-25T02:10:13;97777.44;;;8.53;97.93
13765;BME280;6953;48.810;9.204;2023-03-25T02:12:39;97841.09;;;8.82;97.80
13765;BME280;6953;48.810;9.204;2023-03-25T02:15:06;98085.13;;;10.29;97.46
13765;BME280;6953;48.810;9.204;2023-03-25T02:29:50;98108.25;;;10.50;97.27
13765;BME280;6953;48.810;9.204;2023-03-25T02:33:18;98107.69;;;10.59;96.66
13765;BME280;6953;48.810;9.204;2023-03-25T02:35:48;98114.72;;;10.73;96.19
13765;BME280;6953;48.810;9.204;2023-03-25T02:38:18;98159.03;;;10.63;96.79
13765;BME280;6953;48.810;9.204;2023-03-25T02:41:00;97875.22;;;9.08;97.34
13765;BME280;6953;48.810;9.204;2023-03-25T02:43:35;98115.78;;;10.29;98.99
13765;BME280;6953;48.810;9.204;2023-03-25T02:46:07;98150.22;;;10.36;100.00
13765;BME280;6953;48.810;9.204;2023-03-25T02:48:43;97907.03;;;8.73;100.00
13765;BME280;6953;48.810;9.204;2023-03-25T02:51:21;98168.22;;;9.99;100.00
13765;BME280;6953;48.810;9.204;2023-03-25T02:53:50;97891.31;;;7.97;100.00
13765;BME280;6953;48.810;9.204;2023-03-25T02:56:18;98079.84;;;8.84;100.00
13765;BME280;6953;48.810;9.204;2023-03-25T02:58:48;98192.69;;;9.24;100.00
13765;BME280;6953;48.810;9.204;2023-03-25T03:01:15;98155.59;;;9.01;100.00
13765;BME280;6953;48.810;9.204;2023-03-25T03:03:41;98161.81;;;8.67;100.00
13765;BME280;6953;48.810;9.204;2023-03-25T03:06:07;98141.59;;;8.71;100.00
13765;BME280;6953;48.810;9.204;2023-03-25T03:11:44;98143.25;;;8.56;100.00
13765;BME280;6953;48.810;9.204;2023-03-25T03:14:23;98142.13;;;8.45;100.00
13765;BME280;6953;48.810;9.204;2023-03-25T03:17:35;98134.38;;;8.43;100.00
13765;BME280;6953;48.810;9.204;2023-03-25T03:20:37;98078.72;;;8.09;100.00
13765;BME280;6953;48.810;9.204;2023-03-25T03:24:07;98132.25;;;8.34;100.00
13765;BME280;6953;48.810;9.204;2023-03-25T03:26:32;98123.03;;;8.27;100.00
13765;BME280;6953;48.810;9.204;2023-03-25T03:29:24;98124.66;;;8.30;100.00
13765;BME280;6953;48.810;9.204;2023-03-25T03:31:59;98048.81;;;7.82;100.00
13765;BME280;6953;48.810;9.204;2023-03-25T03:34:32;98139.25;;;8.34;100.00
13765;BME280;6953;48.810;9.204;2023-03-25T03:37:00;98130.09;;;8.25;100.00
13765;BME280;6953;48.810;9.204;2023-03-25T03:39:31;98126.25;;;8.32;100.00
13765;BME280;6953;48.810;9.204;2023-03-25T03:44:55;98030.44;;;7.68;100.00
13765;BME280;6953;48.810;9.204;2023-03-25T03:47:25;97866.84;;;6.72;100.00
13765;BME280;6953;48.810;9.204;2023-03-25T03:49:59;98087.44;;;7.93;100.00
13765;BME280;6953;48.810;9.204;2023-03-25T03:55:21;98186.56;;;8.45;100.00
13765;BME280;6953;48.810;9.204;2023-03-25T03:58:05;98179.59;;;8.28;100.00
13765;BME280;6953;48.810;9.204;2023-03-25T04:00:42;98174.59;;;8.41;100.00
13765;BME280;6953;48.810;9.204;2023-03-25T04:03:13;98177.34;;;8.38;100.00
13765;BME280;6953;48.810;9.204;2023-03-25T04:05:44;98088.94;;;7.64;100.00
13765;BME280;6953;48.810;9.204;2023-03-25T04:11:05;98176.78;;;8.33;100.00
13765;BME280;6953;48.810;9.204;2023-03-25T04:13:36;98168.56;;;8.24;100.00
13765;BME280;6953;48.810;9.204;2023-03-25T04:16:04;97899.63;;;6.59;100.00
13765;BME280;6953;48.810;9.204;2023-03-25T04:18:30;98175.78;;;8.02;100.00
13765;BME280;6953;48.810;9.204;2023-03-25T04:20:58;98183.06;;;8.29;100.00
13765;BME280;6953;48.810;9.204;2023-03-25T04:23:25;98173.09;;;8.20;100.00
13765;BME280;6953;48.810;9.204;2023-03-25T04:25:55;97866.59;;;6.42;100.00
13765;BME280;6953;48.810;9.204;2023-03-25T04:28:21;98179.16;;;8.21;100.00
13765;BME280;6953;48.810;9.204;2023-03-25T04:30:48;98184.97;;;8.25;100.00
13765;BME280;6953;48.810;9.204;2023-03-25T04:33:22;97910.13;;;6.57;100.00
13765;BME280;6953;48.810;9.204;2023-03-25T04:35:48;98181.00;;;8.19;100.00
13765;BME280;6953;48.810;9.204;2023-03-25T04:38:16;98109.41;;;7.72;100.00
13765;BME280;6953;48.810;9.204;2023-03-25T04:40:43;98180.31;;;8.15;100.00
13765;BME280;6953;48.810;9.204;2023-03-25T04:43:12;98090.31;;;7.54;100.00
13765;BME280;6953;48.810;9.204;2023-03-25T04:45:37;98213.03;;;8.05;100.00
13765;BME280;6953;48.810;9.204;2023-03-25T04:48:03;98220.72;;;7.91;100.00
13765;BME280;6953;48.810;9.204;2023-03-25T04:50:30;98110.59;;;7.49;100.00
13765;BME280;6953;48.810;9.204;2023-03-25T04:52:56;98173.16;;;7.85;100.00
13765;BME280;6953;48.810;9.204;2023-03-25T04:55:23;98160.41;;;7.79;100.00
13765;BME280;6953;48.810;9.204;2023-03-25T04:57:51;97842.53;;;5.85;100.00
13765;BME280;6953;48.810;9.204;2023-03-25T05:00:19;98131.31;;;7.52;100.00
13765;BME280;6953;48.810;9.204;2023-03-25T05:02:46;98178.69;;;7.79;100.00
13765;BME280;6953;48.810;9.204;2023-03-25T05:05:13;97983.78;;;6.61;100.00
13765;BME280;6953;48.810;9.204;2023-03-25T05:07:46;98185.59;;;7.80;100.00
13765;BME280;6953;48.810;9.204;2023-03-25T05:10:16;97929.38;;;6.19;100.00
13765;BME280;6953;48.810;9.204;2023-03-25T05:12:42;98247.56;;;7.76;100.00
13765;BME280;6953;48.810;9.204;2023-03-25T05:15:09;98204.66;;;7.82;100.00
13765;BME280;6953;48.810;9.204;2023-03-25T05:17:34;98203.22;;;7.93;100.00
13765;BME280;6953;48.810;9.204;2023-03-25T05:20:00;98206.38;;;8.17;100.00
13765;BME280;6953;48.810;9.204;2023-03-25T05:22:25;98207.63;;;8.42;100.00
13765;BME280;6953;48.810;9.204;2023-03-25T05:24:51;98093.13;;;8.01;100.00
13765;BME280;6953;48.810;9.204;2023-03-25T05:27:21;98196.88;;;8.80;100.00
13765;BME280;6953;48.810;9.204;2023-03-25T05:29:46;98218.06;;;9.07;100.00
13765;BME280;6953;48.810;9.204;2023-03-25T05:32:12;98179.81;;;8.89;100.00
13765;BME280;6953;48.810;9.204;2023-03-25T05:34:42;98211.16;;;9.36;99.97
13765;BME280;6953;48.810;9.204;2023-03-25T05:37:11;98198.47;;;9.29;100.00
13765;BME280;6953;48.810;9.204;2023-03-25T05:39:37;98105.13;;;8.52;99.90
13765;BME280;6953;48.810;9.204;2023-03-25T05:42:02;98208.56;;;9.36;100.00
13765;BME280;6953;48.810;9.204;2023-03-25T05:44:28;98137.78;;;9.07;99.31
13765;BME280;6953;48.810;9.204;2023-03-25T05:46:53;98207.91;;;9.62;98.41
13765;BME280;6953;48.810;9.204;2023-03-25T05:49:18;98185.72;;;9.54;97.80
13765;BME280;6953;48.810;9.204;2023-03-25T05:51:46;98146.72;;;9.34;97.77
13765;BME280;6953;48.810;9.204;2023-03-25T05:54:14;97980.00;;;8.46;97.60
13765;BME280;6953;48.810;9.204;2023-03-25T05:56:39;98208.78;;;9.92;96.93
13765;BME280;6953;48.810;9.204;2023-03-25T05:59:05;98204.03;;;9.99;95.83
13765;BME280;6953;48.810;9.204;2023-03-25T06:01:32;98214.34;;;10.17;94.09
13765;BME280;6953;48.810;9.204;2023-03-25T06:03:58;98078.00;;;9.30;93.87
13765;BME280;6953;48.810;9.204;2023-03-25T06:06:25;98210.97;;;10.15;93.86
13765;BME280;6953;48.810;9.204;2023-03-25T06:08:51;98215.28;;;10.30;93.50
13765;BME280;6953;48.810;9.204;2023-03-25T06:11:18;98150.19;;;10.09;92.35
13765;BME280;6953;48.810;9.204;2023-03-25T06:13:45;98247.34;;;10.63;90.55
13765;BME280;6953;48.810;9.204;2023-03-25T06:16:18;98242.03;;;10.78;90.54
13765;BME280;6953;48.810;9.204;2023-03-25T06:18:45;98166.53;;;10.41;89.83
13765;BME280;6953;48.810;9.204;2023-03-25T06:21:18;98001.41;;;9.56;89.27
13765;BME280;6953;48.810;9.204;2023-03-25T06:23:45;98252.38;;;11.09;88.67
13765;BME280;6953;48.810;9.204;2023-03-25T06:26:12;98276.63;;;11.13;88.78
13765;BME280;6953;48.810;9.204;2023-03-25T06:28:37;98227.81;;;11.10;88.50
13765;BME280;6953;48.810;9.204;2023-03-25T06:31:03;98203.13;;;11.13;87.67
13765;BME280;6953;48.810;9.204;2023-03-25T06:33:31;97997.22;;;10.10;86.50
13765;BME280;6953;48.810;9.204;2023-03-25T06:35:57;98241.34;;;11.58;85.83
13765;BME280;6953;48.810;9.204;2023-03-25T06:38:22;98249.25;;;11.31;86.47
13765;BME280;6953;48.810;9.204;2023-03-25T06:40:47;98236.22;;;11.15;87.25
13765;BME280;6953;48.810;9.204;2023-03-25T06:43:13;98239.59;;;11.03;88.27
13765;BME280;6953;48.810;9.204;2023-03-25T06:45:38;98238.38;;;11.09;88.68
13765;BME280;6953;48.810;9.204;2023-03-25T06:48:04;97986.34;;;9.74;88.30
13765;BME280;6953;48.810;9.204;2023-03-25T06:50:30;98177.44;;;11.18;87.38
13765;BME280;6953;48.810;9.204;2023-03-25T06:52:56;98249.03;;;11.88;86.19
13765;BME280;6953;48.810;9.204;2023-03-25T06:55:21;98245.03;;;11.95;85.53
13765;BME280;6953;48.810;9.204;2023-03-25T06:57:46;98252.06;;;11.82;85.11
13765;BME280;6953;48.810;9.204;2023-03-25T07:00:12;98253.34;;;11.89;84.40
13765;BME280;6953;48.810;9.204;2023-03-25T07:02:38;98245.50;;;12.01;83.59
13765;BME280;6953;48.810;9.204;2023-03-25T07:05:04;98242.97;;;12.39;81.19
13765;BME280;6953;48.810;9.204;2023-03-25T07:07:30;98246.31;;;13.40;78.11
13765;BME280;6953;48.810;9.204;2023-03-25T07:09:55;98026.41;;;13.33;73.03
13765;BME280;6953;48.810;9.204;2023-03-25T07:12:21;98210.78;;;15.39;67.02
13765;BME280;6953;48.810;9.204;2023-03-25T07:14:54;98244.53;;;16.11;63.59
13765;BME280;6953;48.810;9.204;2023-03-25T07:17:21;98243.28;;;15.83;64.53
13765;BME280;6953;48.810;9.204;2023-03-25T07:19:47;98249.81;;;15.68;64.82
13765;BME280;6953;48.810;9.204;2023-03-25T07:22:12;98252.25;;;15.39;66.90
13765;BME280;6953;48.810;9.204;2023-03-25T07:24:38;98261.06;;;14.94;67.21
13765;BME280;6953;48.810;9.204;2023-03-25T07:27:03;97999.66;;;12.80;68.45
13765;BME280;6953;48.810;9.204;2023-03-25T07:29:28;98178.47;;;13.44;69.91
13765;BME280;6953;48.810;9.204;2023-03-25T07:31:54;98251.28;;;13.80;70.80
13765;BME280;6953;48.810;9.204;2023-03-25T07:34:20;98009.97;;;12.47;71.04
13765;BME280;6953;48.810;9.204;2023-03-25T07:36:45;98084.09;;;13.02;71.05
13765;BME280;6953;48.810;9.204;2023-03-25T07:39:10;98138.22;;;13.99;69.41
13765;BME280;6953;48.810;9.204;2023-03-25T07:41:36;98246.41;;;17.12;61.66
13765;BME280;6953;48.810;9.204;2023-03-25T07:44:01;98244.44;;;19.88;50.97
13765;BME280;6953;48.810;9.204;2023-03-25T07:46:27;98253.03;;;20.09;49.43
13765;BME280;6953;48.810;9.204;2023-03-25T07:48:52;98245.78;;;21.32;46.25
13765;BME280;6953;48.810;9.204;2023-03-25T07:51:17;98249.97;;;22.01;44.37
13765;BME280;6953;48.810;9.204;2023-03-25T07:53:44;98249.63;;;23.01;39.63
13765;BME280;6953;48.810;9.204;2023-03-25T07:56:11;98195.91;;;23.65;36.86
13765;BME280;6953;48.810;9.204;2023-03-25T07:58:36;98231.72;;;23.72;36.48
13765;BME280;6953;48.810;9.204;2023-03-25T08:01:02;98086.38;;;22.93;36.82
13765;BME280;6953;48.810;9.204;2023-03-25T08:03:28;98229.56;;;25.26;33.95
13765;BME280;6953;48.810;9.204;2023-03-25T08:05:53;98250.59;;;25.36;32.16
13765;BME280;6953;48.810;9.204;2023-03-25T08:08:19;98082.63;;;24.46;31.97
13765;BME280;6953;48.810;9.204;2023-03-25T08:10:44;98097.50;;;23.89;33.43
13765;BME280;6953;48.810;9.204;2023-03-25T08:13:11;98250.97;;;22.81;37.22
13765;BME280;6953;48.810;9.204;2023-03-25T08:15:37;98177.81;;;20.68;42.64
13765;BME280;6953;48.810;9.204;2023-03-25T08:18:02;98224.53;;;19.92;46.23
13765;BME280;6953;48.810;9.204;2023-03-25T08:20:29;98220.53;;;19.79;47.01
13765;BME280;6953;48.810;9.204;2023-03-25T08:22:54;98234.78;;;21.35;42.86
13765;BME280;6953;48.810;9.204;2023-03-25T08:25:21;98230.75;;;21.31;41.49
13765;BME280;6953;48.810;9.204;2023-03-25T08:27:46;98229.53;;;21.00;42.25
13765;BME280;6953;48.810;9.204;2023-03-25T08:30:12;98078.41;;;20.58;41.26
13765;BME280;6953;48.810;9.204;2023-03-25T08:32:38;98238.09;;;22.03;39.56
13765;BME280;6953;48.810;9.204;2023-03-25T08:35:05;98226.88;;;22.41;38.41
13765;BME280;6953;48.810;9.204;2023-03-25T08:37:31;98171.63;;;20.85;41.69
13765;BME280;6953;48.810;9.204;2023-03-25T08:40:01;98213.09;;;19.83;45.57
13765;BME280;6953;48.810;9.204;2023-03-25T08:42:31;98166.00;;;18.19;49.31
13765;BME280;6953;48.810;9.204;2023-03-25T08:44:56;98232.03;;;17.35;53.71
13765;BME280;6953;48.810;9.204;2023-03-25T08:47:22;98226.63;;;16.03;59.52
13765;BME280;6953;48.810;9.204;2023-03-25T08:49:47;97968.91;;;13.27;65.29
13765;BME280;6953;48.810;9.204;2023-03-25T08:52:12;98208.41;;;13.89;69.28
13765;BME280;6953;48.810;9.204;2023-03-25T08:54:38;98239.88;;;13.80;71.79
13765;BME280;6953;48.810;9.204;2023-03-25T08:57:03;98254.63;;;13.47;72.47
13765;BME280;6953;48.810;9.204;2023-03-25T08:59:28;98231.75;;;12.99;73.97
13765;BME280;6953;48.810;9.204;2023-03-25T09:01:54;98249.31;;;12.61;76.29
13765;BME280;6953;48.810;9.204;2023-03-25T09:04:19;97981.72;;;10.73;79.07
13765;BME280;6953;48.810;9.204;2023-03-25T09:06:45;98019.44;;;10.58;80.61
13765;BME280;6953;48.810;9.204;2023-03-25T09:09:10;98270.84;;;11.76;85.42
13765;BME280;6953;48.810;9.204;2023-03-25T09:11:36;98269.84;;;11.64;86.90
13765;BME280;6953;48.810;9.204;2023-03-25T09:14:02;98250.25;;;11.82;87.46
13765;BME280;6953;48.810;9.204;2023-03-25T09:16:29;98176.22;;;11.76;88.25
13765;BME280;6953;48.810;9.204;2023-03-25T09:18:55;98230.41;;;14.01;82.98
13765;BME280;6953;48.810;9.204;2023-03-25T09:21:20;98228.44;;;15.39;76.76
13765;BME280;6953;48.810;9.204;2023-03-25T09:23:45;98232.81;;;15.29;75.02
13765;BME280;6953;48.810;9.204;2023-03-25T09:26:11;98177.72;;;14.68;75.20
13765;BME280;6953;48.810;9.204;2023-03-25T09:28:36;98208.84;;;14.86;77.38
13765;BME280;6953;48.810;9.204;2023-03-25T09:31:02;98239.44;;;14.78;76.83
13765;BME280;6953;48.810;9.204;2023-03-25T09:33:27;98232.88;;;14.38;76.06
13765;BME280;6953;48.810;9.204;2023-03-25T09:35:52;98233.28;;;14.66;75.31
13765;BME280;6953;48.810;9.204;2023-03-25T09:38:18;98229.28;;;15.50;72.70
13765;BME280;6953;48.810;9.204;2023-03-25T09:40:44;98217.00;;;16.95;66.22
13765;BME280;6953;48.810;9.204;2023-03-25T09:45:44;98225.81;;;20.50;54.72
13765;BME280;6953;48.810;9.204;2023-03-25T09:48:28;98207.59;;;21.39;51.98
13765;BME280;6953;48.810;9.204;2023-03-25T09:51:03;98013.09;;;23.02;43.60
13765;BME280;6953;48.810;9.204;2023-03-25T09:53:37;98235.50;;;25.64;38.31
13765;BME280;6953;48.810;9.204;2023-03-25T09:56:06;98219.03;;;25.82;37.27
13765;BME280;6953;48.810;9.204;2023-03-25T09:58:47;98223.38;;;24.13;40.72
13765;BME280;6953;48.810;9.204;2023-03-25T10:04:30;98216.75;;;18.54;58.27
13765;BME280;6953;48.810;9.204;2023-03-25T10:12:56;98246.13;;;18.24;59.75
13765;BME280;6953;48.810;9.204;2023-03-25T10:15:29;98235.75;;;18.59;57.63
13765;BME280;6953;48.810;9.204;2023-03-25T10:26:01;98142.97;;;27.94;29.59
13765;BME280;6953;48.810;9.204;2023-03-25T10:28:35;98243.44;;;30.17;27.73
13765;BME280;6953;48.810;9.204;2023-03-25T10:31:04;98207.97;;;29.75;25.97
13765;BME280;6953;48.810;9.204;2023-03-25T10:33:38;98226.44;;;28.02;27.39
13765;BME280;6953;48.810;9.204;2023-03-25T10:36:09;98205.88;;;27.94;28.55
13765;BME280;6953;48.810;9.204;2023-03-25T10:38:36;98188.19;;;28.39;26.94
13765;BME280;6953;48.810;9.204;2023-03-25T10:43:50;98089.25;;;26.09;28.54
13765;BME280;6953;48.810;9.204;2023-03-25T10:46:31;98126.03;;;24.72;30.24
13765;BME280;6953;48.810;9.204;2023-03-25T10:48:59;97782.28;;;22.17;30.29
13765;BME280;6953;48.810;9.204;2023-03-25T10:51:29;98142.97;;;23.83;32.15
13765;BME280;6953;48.810;9.204;2023-03-25T10:53:56;98178.78;;;23.35;32.72
13765;BME280;6953;48.810;9.204;2023-03-25T10:56:26;98187.44;;;22.59;35.73
13765;BME280;6953;48.810;9.204;2023-03-25T10:58:55;98174.38;;;21.34;39.82
13765;BME280;6953;48.810;9.204;2023-03-25T11:01:36;98169.56;;;20.01;45.55
13765;BME280;6953;48.810;9.204;2023-03-25T11:04:04;98183.91;;;18.36;50.93
13765;BME280;6953;48.810;9.204;2023-03-25T11:06:33;98109.38;;;18.18;49.86
13765;BME280;6953;48.810;9.204;2023-03-25T11:09:11;98196.81;;;21.49;42.70
13765;BME280;6953;48.810;9.204;2023-03-25T11:11:38;98182.31;;;24.35;34.42
13765;BME280;6953;48.810;9.204;2023-03-25T11:14:03;97990.69;;;24.95;29.90
13765;BME280;6953;48.810;9.204;2023-03-25T11:16:33;98233.66;;;27.27;27.21
13765;BME280;6953;48.810;9.204;2023-03-25T11:19:01;98197.97;;;24.91;29.57
13765;BME280;6953;48.810;9.204;2023-03-25T11:21:31;97994.00;;;23.13;32.43
13765;BME280;6953;48.810;9.204;2023-03-25T11:23:58;98217.84;;;24.82;31.99
13765;BME280;6953;48.810;9.204;2023-03-25T11:26:27;98199.91;;;25.77;29.57
13765;BME280;6953;48.810;9.204;2023-03-25T11:29:00;98205.13;;;27.39;27.11
13765;BME280;6953;48.810;9.204;2023-03-25T11:31:28;98184.56;;;25.56;29.16
13765;BME280;6953;48.810;9.204;2023-03-25T11:36:31;98006.94;;;25.72;28.75
13765;BME280;6953;48.810;9.204;2023-03-25T11:39:02;98104.38;;;27.93;26.01
13765;BME280;6953;48.810;9.204;2023-03-25T11:41:34;98000.50;;;27.38;24.48
13765;BME280;6953;48.810;9.204;2023-03-25T11:44:02;98189.84;;;28.40;24.45
13765;BME280;6953;48.810;9.204;2023-03-25T11:46:30;98122.41;;;28.91;22.86
13765;BME280;6953;48.810;9.204;2023-03-25T11:49:07;98136.16;;;30.23;20.86
13765;BME280;6953;48.810;9.204;2023-03-25T11:51:33;98127.75;;;29.30;21.85
13765;BME280;6953;48.810;9.204;2023-03-25T11:54:12;98171.00;;;28.59;22.08
13765;BME280;6953;48.810;9.204;2023-03-25T11:56:41;98038.78;;;29.16;20.99
13765;BME280;6953;48.810;9.204;2023-03-25T11:59:22;98075.34;;;28.08;22.53
13765;BME280;6953;48.810;9.204;2023-03-25T12:01:50;98148.22;;;28.15;22.92
13765;BME280;6953;48.810;9.204;2023-03-25T12:04:18;98189.06;;;26.20;24.12
13765;BME280;6953;48.810;9.204;2023-03-25T12:07:07;97997.22;;;22.62;27.67
13765;BME280;6953;48.810;9.204;2023-03-25T12:09:34;98206.97;;;22.60;30.24
13765;BME280;6953;48.810;9.204;2023-03-25T12:15:05;97927.63;;;19.96;34.33
13765;BME280;6953;48.810;9.204;2023-03-25T12:20:22;98166.72;;;23.39;30.07
13765;BME280;6953;48.810;9.204;2023-03-25T12:23:00;98187.06;;;23.56;29.70
13765;BME280;6953;48.810;9.204;2023-03-25T12:25:35;98213.84;;;22.54;31.35
13765;BME280;6953;48.810;9.204;2023-03-25T12:36:38;98146.22;;;21.89;32.37
13765;BME280;6953;48.810;9.204;2023-03-25T12:41:48;98104.28;;;20.40;36.57
13765;BME280;6953;48.810;9.204;2023-03-25T12:55:35;98218.59;;;16.57;59.83
13765;BME280;6953;48.810;9.204;2023-03-25T13:01:03;98222.69;;;18.93;50.10
13765;BME280;6953;48.810;9.204;2023-03-25T13:06:19;98058.03;;;23.53;35.80
13765;BME280;6953;48.810;9.204;2023-03-25T13:08:58;98211.69;;;25.90;29.50
13765;BME280;6953;48.810;9.204;2023-03-25T13:11:35;98215.81;;;26.22;28.95
13765;BME280;6953;48.810;9.204;2023-03-25T13:14:06;98058.09;;;25.64;28.24
13765;BME280;6953;48.810;9.204;2023-03-25T13:16:36;98161.41;;;27.84;26.29
13765;BME280;6953;48.810;9.204;2023-03-25T13:19:05;98251.63;;;26.99;25.85
13765;BME280;6953;48.810;9.204;2023-03-25T13:21:37;98234.94;;;25.69;27.99
13765;BME280;6953;48.810;9.204;2023-03-25T13:24:10;98210.94;;;23.74;30.80
13765;BME280;6953;48.810;9.204;2023-03-25T13:26:39;98225.00;;;21.77;35.08
13765;BME280;6953;48.810;9.204;2023-03-25T13:29:28;98200.22;;;20.05;39.32
13765;BME280;6953;48.810;9.204;2023-03-25T13:31:59;98134.41;;;19.88;40.73
13765;BME280;6953;48.810;9.204;2023-03-25T13:34:35;98201.75;;;22.18;36.44
13765;BME280;6953;48.810;9.204;2023-03-25T13:37:13;98225.81;;;23.30;34.03
13765;BME280;6953;48.810;9.204;2023-03-25T13:40:25;98205.59;;;23.27;32.58
13765;BME280;6953;48.810;9.204;2023-03-25T13:45:30;97985.94;;;21.89;34.49
13765;BME280;6953;48.810;9.204;2023-03-25T13:51:02;98156.09;;;20.63;38.01
13765;BME280;6953;48.810;9.204;2023-03-25T13:56:27;98178.56;;;19.10;43.43
13765;BME280;6953;48.810;9.204;2023-03-25T14:09:54;98205.66;;;17.43;47.90
13765;BME280;6953;48.810;9.204;2023-03-25T14:12:30;98152.84;;;15.89;55.28
13765;BME280;6953;48.810;9.204;2023-03-25T14:15:25;98231.03;;;14.62;64.63
13765;BME280;6953;48.810;9.204;2023-03-25T14:17:53;98247.41;;;13.73;69.58
13765;BME280;6953;48.810;9.204;2023-03-25T14:20:31;98238.25;;;13.18;72.56
13765;BME280;6953;48.810;9.204;2023-03-25T14:23:01;97994.41;;;11.32;70.03
13765;BME280;6953;48.810;9.204;2023-03-25T14:25:39;98240.47;;;12.87;70.34
13765;BME280;6953;48.810;9.204;2023-03-25T14:28:11;98152.28;;;12.32;69.70
13765;BME280;6953;48.810;9.204;2023-03-25T14:30:39;98145.59;;;12.14;69.43
13765;BME280;6953;48.810;9.204;2023-03-25T14:33:09;98109.50;;;11.78;69.80
13765;BME280;6953;48.810;9.204;2023-03-25T14:43:51;98215.63;;;12.91;67.31
13765;BME280;6953;48.810;9.204;2023-03-25T14:46:20;98228.47;;;13.56;64.55
13765;BME280;6953;48.810;9.204;2023-03-25T14:51:42;98189.31;;;14.33;62.16
13765;BME280;6953;48.810;9.204;2023-03-25T14:57:37;97996.78;;;13.53;61.79
13765;BME280;6953;48.810;9.204;2023-03-25T14:59:44;98170.78;;;14.78;60.62
13765;BME280;6953;48.810;9.204;2023-03-25T15:02:24;98175.72;;;14.93;59.67
13765;BME280;6953;48.810;9.204;2023-03-25T15:10:34;98114.34;;;15.01;54.72
13765;BME280;6953;48.810;9.204;2023-03-25T15:13:29;98163.56;;;15.46;53.80
13765;BME280;6953;48.810;9.204;2023-03-25T15:16:15;98119.03;;;14.97;53.34
13765;BME280;6953;48.810;9.204;2023-03-25T15:32:23;98158.78;;;15.71;51.90
13765;BME280;6953;48.810;9.204;2023-03-25T15:35:35;98142.25;;;15.58;51.68
13765;BME280;6953;48.810;9.204;2023-03-25T15:41:00;98176.00;;;15.65;52.12
13765;BME280;6953;48.810;9.204;2023-03-25T15:54:37;98163.19;;;15.39;54.49
13765;BME280;6953;48.810;9.204;2023-03-25T15:57:16;97837.22;;;13.49;54.16